Aérodrome :
LOGIN :

S'inscrire | Disclaimer

   EN    FR    IT 

 










Légende :    VFR   VFR Marginal   IFR   IFR Intensif   IFR Très Intensif
Visi : 
Plafond : 
>= 8 km
>= 3000ft
5 à 8 km
1000 à 3000 ft
1500m à 5 km
500 à 1000 ft
800 à 1500m
200 à 500 ft
< 800m
< 200 ft
Symboles :   Orages  Brouillard  Fortes neiges  Fortes précipitations  Vent > 20 kt
SIGMETs :   Divers  Orages  Givrage  Turbulence  Onde Orograph.  Cendres Volcan.







- Altitude de l'aérodrome : 392 ft
- Code IATA : CDG
- Voir les cartes d'approche


LFPG - Paris-Aeroport Charles De Gaulle

DERNIER METAR :
  • 211800Z 29007KT 9999 FEW050TCU 18/10 Q1018 TEMPO FEW050TCU

METARs EXPIRÉS :
  • 211730Z 29007KT 9999 FEW048 SCT060 18/10 Q1018 TEMPO FEW050TCU
  • 211700Z 31010KT 9999 FEW048 SCT060 19/10 Q1017 TEMPO FEW050TCU
  • 211630Z 32007KT CAVOK 20/10 Q1018 TEMPO SCT030TCU
  • 211600Z 30003KT 9999 FEW048 BKN076 18/09 Q1017 TEMPO SCT030TCU
  • 211530Z 30007KT 9999 FEW048 BKN073 18/10 Q1018 TEMPO SCT030TCU

TAF TAF LFPG
Valide du 21 à 18h jusqu'au 23 à 00h UTC


211700Z 2118/2224 32006KT CAVOK TX20/2215Z TN09/2204Z
PROB30
TEMPO 2118/2120 FEW050TCU
BECMG 2201/2203 VRB03KT
PROB30 2203/2206 3000 BR
ATIS : +33 1 48 62 10 92
Pas de NOTAMs connus pour ce terrain.



MET'MAP, la Météo Aéronautique d'un coup d'oeil ! - Copyright ORBIFLY Décembre 2007 - Disclaimer

ORBIFLY MET'MAP TEAM :

Programmation & Développement : Alexandra Zaïnal
Conception & Développement : Baudouin d'Aumeries
Co-Programmation & Développement : Marc-Olivier Méhu
Soutien technique & logistique : Manuel Goepfert

Contact : metmap@orbifly.com




SOURCES & CREDITS :

   NOAA